Time;durP1;ratioP1;P1;durP2;ratioP2;P2;SDS_P1;SDS_P2;PMS_P1;PMS_P2;Temp;Humidity;BMP_temperature;BMP_pressure;BME280_temperature;BME280_humidity;BME280_pressure;Samples;Min_cycle;Max_cycle;Signal;HPM_P1;HPM_P2
2021/04/11 00:00:13;;;;;;;28.30;20.67;;;;;;;7.65;100.00;100250.41;4934868;29;20190;-69
2021/04/11 00:02:38;;;;;;;27.57;20.17;;;;;;;7.68;100.00;100248.00;4900736;29;20314;-69
2021/04/11 00:05:05;;;;;;;28.33;21.00;;;;;;;7.68;100.00;100235.31;4916281;29;20183;-69
2021/04/11 00:07:33;;;;;;;29.93;21.30;;;;;;;7.67;100.00;100227.44;4933111;29;20219;-69
2021/04/11 00:09:59;;;;;;;26.77;20.27;;;;;;;7.64;100.00;100224.47;4934993;29;20183;-70
2021/04/11 00:12:25;;;;;;;27.10;20.60;;;;;;;7.71;100.00;100223.16;4916535;29;20228;-70
2021/04/11 00:14:50;;;;;;;30.47;22.73;;;;;;;7.74;100.00;100228.03;4937766;29;20196;-69
2021/04/11 00:17:18;;;;;;;30.17;21.03;;;;;;;7.78;100.00;100226.41;4939076;29;20230;-69
2021/04/11 00:19:46;;;;;;;28.53;21.37;;;;;;;7.77;100.00;100216.69;4907413;29;20640;-69
2021/04/11 00:22:11;;;;;;;29.57;21.73;;;;;;;7.73;100.00;100215.63;4920784;29;20223;-71
2021/04/11 00:24:39;;;;;;;29.60;21.13;;;;;;;7.79;100.00;100214.53;4934183;29;20186;-70
2021/04/11 00:27:07;;;;;;;29.13;21.70;;;;;;;7.83;100.00;100215.63;4958214;29;20241;-69
2021/04/11 00:29:33;;;;;;;27.87;20.90;;;;;;;7.91;100.00;100217.81;4957551;29;20319;-69
2021/04/11 00:31:58;;;;;;;26.23;21.27;;;;;;;7.87;100.00;100205.91;4960260;28;20702;-68
2021/04/11 00:34:24;;;;;;;26.40;21.20;;;;;;;7.86;100.00;100215.13;4926847;29;20186;-70
2021/04/11 00:36:50;;;;;;;29.87;21.57;;;;;;;7.94;100.00;100201.06;4941145;29;20290;-69
2021/04/11 00:39:18;;;;;;;27.83;20.80;;;;;;;7.94;100.00;100201.88;4959419;29;20265;-69
2021/04/11 00:41:48;;;;;;;27.93;21.00;;;;;;;7.89;100.00;100203.75;4928196;29;20250;-68
2021/04/11 00:44:14;;;;;;;31.40;22.07;;;;;;;7.86;100.00;100198.91;4929204;29;20187;-69
2021/04/11 00:46:46;;;;;;;29.33;22.10;;;;;;;7.94;100.00;100190.25;4943219;28;20253;-69
2021/04/11 00:49:22;;;;;;;30.27;21.90;;;;;;;7.99;100.00;100182.16;4958493;29;20206;-69
2021/04/11 00:51:47;;;;;;;28.10;21.23;;;;;;;7.96;100.00;100172.69;4923212;29;20227;-70
2021/04/11 00:54:16;;;;;;;29.73;21.20;;;;;;;7.92;100.00;100160.78;4940284;29;20190;-70
2021/04/11 00:56:41;;;;;;;28.97;21.97;;;;;;;8.00;100.00;100156.75;4924427;29;20589;-69
2021/04/11 00:59:07;;;;;;;29.83;22.10;;;;;;;7.96;100.00;100144.84;4923868;29;20206;-70
2021/04/11 01:01:34;;;;;;;28.63;21.77;;;;;;;8.02;100.00;100139.16;4923175;29;20219;-70
2021/04/11 01:04:00;;;;;;;29.20;22.03;;;;;;;7.99;100.00;100144.31;4938933;29;20210;-70
2021/04/11 01:06:34;;;;;;;31.10;22.50;;;;;;;8.10;100.00;100138.69;4954953;28;20223;-70
2021/04/11 01:09:10;;;;;;;28.37;21.70;;;;;;;8.08;100.00;100132.69;4924300;29;20189;-70
2021/04/11 01:11:39;;;;;;;28.00;20.47;;;;;;;8.01;100.00;100125.94;4939205;29;20262;-71
2021/04/11 01:14:06;;;;;;;26.23;21.07;;;;;;;8.11;100.00;100129.47;4954983;29;20250;-70
2021/04/11 01:16:33;;;;;;;28.07;21.17;;;;;;;8.03;100.00;100114.56;4938974;29;20230;-69
2021/04/11 01:19:00;;;;;;;27.33;21.77;;;;;;;8.11;100.00;100116.78;4939472;29;20179;-69
2021/04/11 01:21:57;;;;;;;27.87;21.57;;;;;;;8.17;100.00;100115.69;4939025;28;20212;-69
2021/04/11 01:24:55;;;;;;;28.37;22.07;;;;;;;8.11;100.00;100110.53;4954544;28;20248;-69
2021/04/11 01:27:24;;;;;;;28.27;21.67;;;;;;;8.14;100.00;100105.41;4924518;28;20227;-70
2021/04/11 01:29:51;;;;;;;29.97;21.17;;;;;;;8.15;100.00;100100.78;4924251;29;20266;-70
2021/04/11 01:32:21;;;;;;;29.73;21.73;;;;;;;8.21;100.00;100097.03;4938803;28;20242;-69
2021/04/11 01:34:47;;;;;;;27.57;22.10;;;;;;;8.23;100.00;100102.97;4925763;29;20175;-70
2021/04/11 01:37:14;;;;;;;27.57;21.57;;;;;;;8.16;100.00;100097.81;4924563;29;20281;-70
2021/04/11 01:39:41;;;;;;;29.47;22.57;;;;;;;8.26;100.00;100087.03;4926047;29;20624;-70
2021/04/11 01:42:07;;;;;;;29.10;22.63;;;;;;;8.24;100.00;100093.78;4924144;29;20218;-69
2021/04/11 01:44:36;;;;;;;28.53;22.10;;;;;;;8.24;100.00;100083.78;4940519;29;20211;-70
2021/04/11 01:47:05;;;;;;;28.63;23.23;;;;;;;8.20;100.00;100093.50;4924444;29;20597;-69
2021/04/11 01:49:37;;;;;;;27.17;22.60;;;;;;;8.26;100.00;100087.03;4924746;29;20767;-70
2021/04/11 01:52:24;;;;;;;29.93;23.43;;;;;;;8.19;100.00;100064.84;4923060;29;20254;-69
2021/04/11 01:54:52;;;;;;;26.73;22.33;;;;;;;8.21;100.00;100065.38;4939259;29;20768;-69
2021/04/11 01:57:21;;;;;;;27.27;22.20;;;;;;;8.16;100.00;100059.97;4939554;28;20230;-71
2021/04/11 01:59:48;;;;;;;28.87;23.37;;;;;;;8.26;100.00;100084.31;4923786;29;20191;-69
2021/04/11 02:02:16;;;;;;;27.77;24.00;;;;;;;8.22;100.00;100085.13;4923127;29;20277;-69
2021/04/11 02:04:45;;;;;;;30.67;24.33;;;;;;;8.20;100.00;100066.44;4924758;29;20627;-72
2021/04/11 02:07:12;;;;;;;29.57;24.13;;;;;;;8.14;100.00;100072.94;4923263;29;20236;-70
2021/04/11 02:09:46;;;;;;;29.10;23.03;;;;;;;8.16;100.00;100070.78;4925560;29;20186;-71
2021/04/11 02:12:27;;;;;;;27.93;22.97;;;;;;;8.24;100.00;100067.56;4925744;29;20226;-69
2021/04/11 02:15:00;;;;;;;28.83;23.70;;;;;;;8.20;100.00;100066.44;4940957;29;20183;-72
2021/04/11 02:17:30;;;;;;;29.43;23.73;;;;;;;8.27;100.00;100050.75;4954472;28;20238;-72
2021/04/11 02:19:58;;;;;;;30.90;23.63;;;;;;;8.27;100.00;100052.66;4924458;29;20223;-69
2021/04/11 02:22:32;;;;;;;34.00;25.00;;;;;;;8.31;100.00;100046.41;4938742;29;20265;-69
2021/04/11 02:25:08;;;;;;;31.37;25.10;;;;;;;8.34;100.00;100047.78;4925285;28;20273;-68
2021/04/11 02:27:35;;;;;;;32.03;24.93;;;;;;;8.47;100.00;100062.38;4925207;29;20253;-71
2021/04/11 02:30:07;;;;;;;32.87;25.73;;;;;;;8.29;100.00;100054.00;4958224;29;20386;-70
2021/04/11 02:32:33;;;;;;;32.17;24.70;;;;;;;8.39;100.00;100042.34;4928929;29;20235;-72
2021/04/11 02:35:03;;;;;;;32.63;26.23;;;;;;;8.39;100.00;100043.19;4927802;29;20190;-70
2021/04/11 02:37:32;;;;;;;32.83;25.27;;;;;;;8.43;100.00;100043.47;4928629;29;20229;-70
2021/04/11 02:40:00;;;;;;;30.77;24.87;;;;;;;8.42;100.00;100041.81;4927300;29;20183;-70
2021/04/11 02:42:32;;;;;;;32.73;26.03;;;;;;;8.43;100.00;100039.66;4925962;29;20234;-72
2021/04/11 02:45:20;;;;;;;33.47;25.27;;;;;;;8.38;100.00;100036.13;4924666;29;20658;-71
2021/04/11 02:47:52;;;;;;;31.77;25.20;;;;;;;8.34;100.00;100026.94;4923657;29;20234;-70
2021/04/11 02:50:18;;;;;;;31.30;24.63;;;;;;;8.39;100.00;100031.53;4922324;29;20222;-70
2021/04/11 02:52:56;;;;;;;33.27;26.00;;;;;;;8.42;100.00;100023.69;4922972;29;20579;-69
2021/04/11 02:55:22;;;;;;;32.90;24.90;;;;;;;8.39;100.00;100023.41;4923029;29;20370;-70
2021/04/11 02:57:49;;;;;;;32.60;25.77;;;;;;;8.47;100.00;100015.56;4923806;29;20234;-69
2021/04/11 03:00:18;;;;;;;35.53;26.83;;;;;;;8.44;100.00;100019.63;4938285;29;20187;-70
2021/04/11 03:02:47;;;;;;;35.63;27.63;;;;;;;8.39;100.00;100010.72;4923171;29;20207;-69
2021/04/11 03:05:13;;;;;;;34.47;27.60;;;;;;;8.38;100.00;100019.91;4922157;29;20580;-70
2021/04/11 03:07:57;;;;;;;38.13;27.93;;;;;;;8.51;100.00;100008.50;4923138;29;20736;-70
2021/04/11 03:10:51;;;;;;;34.93;26.63;;;;;;;8.53;100.00;100011.75;4925748;28;20246;-69
2021/04/11 03:13:20;;;;;;;36.13;27.43;;;;;;;8.41;100.00;100013.16;4915970;29;20665;-70
2021/04/11 03:15:48;;;;;;;35.73;26.90;;;;;;;8.49;100.00;100007.97;4929403;29;20684;-70
2021/04/11 03:18:17;;;;;;;36.90;27.80;;;;;;;8.41;100.00;100005.84;4937937;29;20210;-69
2021/04/11 03:20:45;;;;;;;36.40;28.13;;;;;;;8.48;100.00;100009.09;4921656;29;20239;-70
2021/04/11 03:23:16;;;;;;;38.83;28.23;;;;;;;8.59;100.00;100010.66;4923767;29;20191;-70
2021/04/11 03:25:43;;;;;;;39.37;30.43;;;;;;;8.49;100.00;100002.56;4938434;29;20234;-70
2021/04/11 03:28:20;;;;;;;38.37;29.53;;;;;;;8.51;100.00;100003.09;4938048;29;20289;-70
2021/04/11 03:31:01;;;;;;;40.63;30.07;;;;;;;8.55;100.00;99999.59;4938852;29;20630;-70
2021/04/11 03:33:28;;;;;;;38.43;29.57;;;;;;;8.43;100.00;99996.34;4921693;29;20183;-69
2021/04/11 03:36:00;;;;;;;42.83;30.13;;;;;;;8.48;100.00;99992.84;4938220;29;20249;-70
2021/04/11 03:38:29;;;;;;;41.70;30.10;;;;;;;8.43;100.00;99993.66;4922449;29;20237;-71
2021/04/11 03:40:57;;;;;;;38.47;29.13;;;;;;;8.53;100.00;99990.09;4938177;29;20286;-70
2021/04/11 03:43:30;;;;;;;39.90;30.27;;;;;;;8.64;100.00;99986.28;4938683;29;20201;-70
2021/04/11 03:45:57;;;;;;;42.30;30.73;;;;;;;8.58;100.00;99979.28;4922392;29;20226;-71
2021/04/11 03:48:49;;;;;;;44.17;31.33;;;;;;;8.48;100.00;99988.22;4906444;29;20207;-71
2021/04/11 03:51:19;;;;;;;46.10;31.93;;;;;;;8.49;100.00;99984.44;4937607;29;20804;-72
2021/04/11 03:53:54;;;;;;;42.30;30.33;;;;;;;8.54;100.00;99980.91;4936970;29;20356;-72
2021/04/11 03:56:25;;;;;;;45.23;32.17;;;;;;;8.55;100.00;99979.81;4922025;29;20833;-70
2021/04/11 03:58:55;;;;;;;45.30;32.77;;;;;;;8.49;100.00;99979.00;4922846;29;20242;-70
2021/04/11 04:01:42;;;;;;;45.60;32.90;;;;;;;8.52;100.00;99972.25;4910707;29;20731;-72
2021/04/11 04:04:16;;;;;;;44.57;32.93;;;;;;;8.49;100.00;99983.63;4939246;29;20175;-71
2021/04/11 04:06:55;;;;;;;45.10;33.03;;;;;;;8.51;100.00;99990.38;4938227;29;20257;-71
2021/04/11 04:09:23;;;;;;;46.70;34.37;;;;;;;8.47;100.00;99991.22;4938914;29;20242;-70
2021/04/11 04:11:52;;;;;;;46.60;34.67;;;;;;;8.51;100.00;99981.44;4920678;29;20498;-70
2021/04/11 04:14:44;;;;;;;45.43;34.73;;;;;;;8.43;100.00;99979.31;4938157;29;20190;-69
2021/04/11 04:17:33;;;;;;;52.57;36.07;;;;;;;8.44;100.00;99992.56;4938671;29;20718;-70
2021/04/11 04:20:09;;;;;;;51.00;35.27;;;;;;;8.63;100.00;99990.09;4954404;29;20247;-70
2021/04/11 04:23:10;;;;;;;50.03;35.37;;;;;;;8.47;100.00;99988.50;4954144;29;20223;-70
2021/04/11 04:25:42;;;;;;;48.43;35.87;;;;;;;8.54;100.00;99978.19;4923176;29;20394;-70
2021/04/11 04:28:38;;;;;;;48.43;35.43;;;;;;;8.53;100.00;99976.56;4954764;29;20273;-71
2021/04/11 04:31:07;;;;;;;53.10;36.47;;;;;;;8.62;100.00;99966.78;4940436;29;20231;-70
2021/04/11 04:33:58;;;;;;;50.50;36.10;;;;;;;8.68;100.00;99971.09;4939671;29;20191;-70
2021/04/11 04:36:45;;;;;;;49.57;36.87;;;;;;;8.51;100.00;99970.63;4939511;29;20250;-69
2021/04/11 04:39:51;;;;;;;52.40;37.37;;;;;;;8.51;100.00;99976.03;4943056;29;20179;-70
2021/04/11 04:42:46;;;;;;;53.63;38.27;;;;;;;8.72;100.00;99977.56;4952413;29;20234;-70
2021/04/11 04:45:13;;;;;;;54.00;36.70;;;;;;;8.75;100.00;99985.16;4939049;29;20214;-70
2021/04/11 04:48:14;;;;;;;59.83;38.60;;;;;;;8.71;100.00;99967.84;4925483;29;20630;-71
2021/04/11 04:50:51;;;;;;;54.10;37.63;;;;;;;8.70;100.00;99971.63;4926768;29;20241;-71
2021/04/11 04:53:43;;;;;;;55.30;38.53;;;;;;;8.66;100.00;99957.03;4941281;29;20193;-70
2021/04/11 04:56:23;;;;;;;50.43;36.47;;;;;;;8.67;100.00;99964.09;4912158;29;20227;-70
2021/04/11 04:58:55;;;;;;;55.67;37.07;;;;;;;8.78;100.00;99957.53;4940005;28;20207;-70
2021/04/11 05:01:27;;;;;;;55.37;37.50;;;;;;;8.71;100.00;99965.94;4926135;29;20218;-71
2021/04/11 05:04:14;;;;;;;53.63;36.93;;;;;;;8.75;100.00;99958.09;4945795;29;20197;-71
2021/04/11 05:06:42;;;;;;;55.07;36.93;;;;;;;8.79;100.00;99956.44;4927735;29;20233;-70
2021/04/11 05:09:37;;;;;;;53.73;36.63;;;;;;;8.80;100.00;99958.06;4935460;29;20198;-70
2021/04/11 05:12:14;;;;;;;50.60;35.53;;;;;;;8.92;100.00;99949.34;4929673;29;20231;-71
2021/04/11 05:14:49;;;;;;;52.33;35.87;;;;;;;8.95;100.00;99956.09;4946939;29;20198;-70
2021/04/11 05:17:21;;;;;;;59.77;36.83;;;;;;;8.89;100.00;99944.47;4945557;29;20226;-70
2021/04/11 05:19:54;;;;;;;52.23;37.43;;;;;;;8.83;100.00;99945.59;4946029;29;20195;-70
2021/04/11 05:22:38;;;;;;;51.23;35.50;;;;;;;8.96;100.00;99942.28;4928695;29;20218;-72
2021/04/11 05:25:28;;;;;;;55.47;37.20;;;;;;;8.92;100.00;99938.50;4926122;29;20219;-71
2021/04/11 05:27:59;;;;;;;56.07;37.83;;;;;;;9.04;100.00;99933.56;4954586;29;20263;-72
2021/04/11 05:30:30;;;;;;;52.87;36.30;;;;;;;9.00;100.00;99931.69;4945340;29;20746;-71
2021/04/11 05:32:55;;;;;;;51.27;35.90;;;;;;;8.93;100.00;99940.13;4944417;29;20259;-71
2021/04/11 05:35:24;;;;;;;52.43;36.60;;;;;;;9.14;100.00;99930.81;4943668;29;20233;-71
2021/04/11 05:38:41;;;;;;;55.80;37.17;;;;;;;9.15;100.00;99937.03;4943855;29;20382;-71
2021/04/11 05:41:11;;;;;;;56.33;37.20;;;;;;;9.13;100.00;99936.50;4886153;29;20229;-72
2021/04/11 05:44:00;;;;;;;54.50;36.30;;;;;;;9.22;100.00;99943.75;4925611;29;20265;-71
2021/04/11 05:46:41;;;;;;;53.30;36.97;;;;;;;9.22;100.00;99941.84;4945396;29;20219;-71
2021/04/11 05:49:12;;;;;;;51.83;37.27;;;;;;;9.18;100.00;99939.19;4929641;29;20183;-71
2021/04/11 05:51:50;;;;;;;58.17;38.93;;;;;;;9.22;100.00;99938.31;4944219;29;20628;-71
2021/04/11 05:54:23;;;;;;;53.83;37.37;;;;;;;9.28;100.00;99939.91;4930121;29;20201;-72
2021/04/11 05:56:50;;;;;;;58.10;36.87;;;;;;;9.25;100.00;99938.59;4961209;28;20238;-70
2021/04/11 05:59:19;;;;;;;52.90;36.40;;;;;;;9.29;100.00;99930.69;4945873;29;20178;-73
2021/04/11 06:01:51;;;;;;;50.67;36.73;;;;;;;9.38;100.00;99937.94;4943781;29;20743;-71
2021/04/11 06:04:23;;;;;;;53.07;36.93;;;;;;;9.18;100.00;99944.59;4945959;29;20202;-71
2021/04/11 06:07:02;;;;;;;52.87;36.10;;;;;;;9.45;100.00;99937.63;4946003;28;20775;-71
2021/04/11 06:09:35;;;;;;;49.47;34.87;;;;;;;9.38;100.00;99937.16;4961789;29;20195;-70
2021/04/11 06:12:12;;;;;;;48.33;34.57;;;;;;;9.44;100.00;99949.56;4928201;29;20759;-71
2021/04/11 06:14:45;;;;;;;50.77;35.47;;;;;;;9.42;100.00;99957.16;4929604;29;20719;-71
2021/04/11 06:17:13;;;;;;;47.83;34.43;;;;;;;9.34;100.00;99960.44;4943806;29;20360;-70
2021/04/11 06:19:44;;;;;;;48.27;35.80;;;;;;;9.44;100.00;99944.13;4945541;29;20225;-71
2021/04/11 06:22:38;;;;;;;49.20;34.50;;;;;;;9.52;100.00;99940.81;4928296;29;20306;-71
2021/04/11 06:25:05;;;;;;;50.07;34.87;;;;;;;9.55;100.00;99951.91;4960917;29;20681;-72
2021/04/11 06:27:48;;;;;;;47.50;32.97;;;;;;;9.54;100.00;99952.19;4944008;29;20222;-71
2021/04/11 06:30:16;;;;;;;48.20;33.47;;;;;;;9.65;100.00;99952.66;4944087;29;20186;-71
2021/04/11 06:33:11;;;;;;;51.30;34.17;;;;;;;9.61;100.00;99961.63;4927342;29;20222;-70
2021/04/11 06:35:43;;;;;;;48.13;33.23;;;;;;;9.60;100.00;99955.41;4945769;28;20739;-71
2021/04/11 06:38:10;;;;;;;46.03;33.33;;;;;;;9.57;100.00;99954.34;4943593;29;20279;-72
2021/04/11 06:40:41;;;;;;;41.70;31.63;;;;;;;9.51;100.00;99952.78;4942883;29;20226;-71
2021/04/11 06:43:25;;;;;;;46.47;33.07;;;;;;;9.79;100.00;99953.59;4956880;29;20199;-70
2021/04/11 06:45:55;;;;;;;49.20;33.03;;;;;;;9.72;100.00;99947.69;4952842;28;20226;-71
2021/04/11 06:48:40;;;;;;;43.90;32.77;;;;;;;9.69;100.00;99959.13;4923384;29;20207;-70
2021/04/11 06:51:28;;;;;;;44.63;32.17;;;;;;;9.93;100.00;99940.25;4936315;28;20230;-72
2021/04/11 06:54:31;;;;;;;44.80;31.67;;;;;;;10.07;100.00;99944.69;4938362;29;20239;-71
2021/04/11 06:57:16;;;;;;;39.60;31.13;;;;;;;9.97;100.00;99950.22;4948470;29;20293;-72
2021/04/11 06:59:55;;;;;;;38.27;30.73;;;;;;;9.98;100.00;99948.31;4940516;29;20182;-70
2021/04/11 07:02:30;;;;;;;38.93;30.40;;;;;;;9.98;100.00;99951.03;4950740;28;20589;-70
2021/04/11 07:05:09;;;;;;;38.53;30.43;;;;;;;9.97;100.00;99950.22;4951828;29;20214;-71
2021/04/11 07:08:18;;;;;;;39.90;30.23;;;;;;;10.02;100.00;99952.91;4951196;29;20306;-69
2021/04/11 07:11:12;;;;;;;36.00;29.30;;;;;;;10.12;100.00;99948.16;4927684;29;20242;-69
2021/04/11 07:14:10;;;;;;;37.03;28.30;;;;;;;10.19;100.00;99945.94;4935417;29;20201;-72
2021/04/11 07:17:10;;;;;;;33.77;27.47;;;;;;;10.09;100.00;99953.34;4946302;28;20800;-70
2021/04/11 07:19:41;;;;;;;37.07;27.93;;;;;;;10.06;100.00;99953.94;4937174;29;20199;-70
2021/04/11 07:22:13;;;;;;;35.53;28.40;;;;;;;9.99;100.00;99953.47;4934076;29;20617;-73
2021/04/11 07:25:09;;;;;;;35.00;26.27;;;;;;;10.16;100.00;99956.56;4935658;29;20209;-70
2021/04/11 07:27:47;;;;;;;36.73;28.07;;;;;;;10.16;100.00;99953.84;4935210;29;20239;-69
2021/04/11 07:30:20;;;;;;;35.97;28.33;;;;;;;10.39;100.00;99964.72;4935629;29;20210;-70
2021/04/11 07:33:00;;;;;;;34.23;27.67;;;;;;;10.73;100.00;99954.56;4935152;29;20229;-69
2021/04/11 07:35:54;;;;;;;33.23;26.97;;;;;;;11.43;100.00;99945.16;4947895;28;20306;-70
2021/04/11 07:38:30;;;;;;;26.60;23.77;;;;;;;11.70;100.00;99956.16;4893026;29;20218;-70
2021/04/11 07:40:56;;;;;;;23.10;20.60;;;;;;;11.52;100.00;99964.34;4937055;29;20254;-70
2021/04/11 07:43:36;;;;;;;23.93;21.27;;;;;;;11.31;100.00;99958.38;4918856;29;20183;-71
2021/04/11 07:46:26;;;;;;;22.43;20.07;;;;;;;11.43;100.00;99956.03;4950163;28;20226;-70
2021/04/11 07:49:16;;;;;;;20.43;17.53;;;;;;;11.37;100.00;99959.94;4952311;28;20215;-71
2021/04/11 07:52:06;;;;;;;19.50;17.17;;;;;;;11.28;100.00;99958.16;4941971;29;20313;-70
2021/04/11 07:55:01;;;;;;;19.20;17.10;;;;;;;11.31;100.00;99969.25;4943168;29;20680;-69
2021/04/11 07:57:45;;;;;;;19.93;16.93;;;;;;;11.16;100.00;99979.53;4950614;29;20269;-70
2021/04/11 08:00:45;;;;;;;17.37;15.03;;;;;;;11.27;100.00;99981.81;4934931;29;20195;-70
2021/04/11 08:03:32;;;;;;;16.83;14.90;;;;;;;11.34;100.00;99989.63;4950359;28;20229;-70
2021/04/11 08:06:11;;;;;;;18.10;14.67;;;;;;;11.20;100.00;99973.19;4949938;28;20241;-70
2021/04/11 08:09:04;;;;;;;16.10;14.43;;;;;;;11.14;100.00;99979.03;4919247;29;20226;-71
2021/04/11 08:11:51;;;;;;;17.60;15.80;;;;;;;11.40;100.00;99983.81;4950205;28;20367;-70
2021/04/11 08:14:43;;;;;;;17.83;15.20;;;;;;;11.37;100.00;99978.13;4934792;29;20199;-72
2021/04/11 08:17:31;;;;;;;17.43;15.63;;;;;;;11.55;100.00;99976.25;4933807;28;20385;-70
2021/04/11 08:20:20;;;;;;;16.27;14.53;;;;;;;11.87;100.00;99975.47;4950805;28;20191;-70
2021/04/11 08:23:01;;;;;;;17.67;14.77;;;;;;;11.65;100.00;99987.00;4949405;29;20642;-69
2021/04/11 08:25:38;;;;;;;16.07;14.37;;;;;;;11.61;100.00;99980.53;4950186;29;20233;-71
2021/04/11 08:28:16;;;;;;;16.33;14.63;;;;;;;11.92;100.00;99995.25;4951919;29;20234;-69
2021/04/11 08:30:59;;;;;;;15.53;13.80;;;;;;;11.78;100.00;99991.69;4949059;28;20305;-69
2021/04/11 08:33:51;;;;;;;15.10;13.07;;;;;;;11.60;100.00;100005.31;4949624;28;20277;-70
2021/04/11 08:37:03;;;;;;;14.93;13.33;;;;;;;11.68;100.00;100012.78;4914264;29;20261;-69
2021/04/11 08:40:07;;;;;;;14.97;12.93;;;;;;;11.74;100.00;100003.44;4913693;29;20363;-70
2021/04/11 08:42:45;;;;;;;13.60;12.17;;;;;;;11.75;100.00;99996.91;4919837;29;20692;-70
2021/04/11 08:45:19;;;;;;;13.23;11.83;;;;;;;11.64;100.00;99990.00;4908279;29;20326;-68
2021/04/11 08:48:33;;;;;;;13.37;12.00;;;;;;;11.88;100.00;99980.63;4938946;28;20577;-70
2021/04/11 08:51:00;;;;;;;12.40;11.10;;;;;;;12.19;100.00;99987.97;4909519;29;20230;-69
2021/04/11 08:53:27;;;;;;;12.73;11.30;;;;;;;12.37;100.00;99996.09;4920007;29;20183;-70
2021/04/11 08:56:02;;;;;;;12.50;11.27;;;;;;;12.76;100.00;100002.72;4937185;29;20334;-69
2021/04/11 08:58:35;;;;;;;11.10;10.00;;;;;;;13.01;100.00;100007.69;4937315;29;20199;-70
2021/04/11 09:01:21;;;;;;;9.73;8.63;;;;;;;12.88;100.00;100013.94;4936932;28;20596;-70
2021/04/11 09:04:11;;;;;;;8.67;7.83;;;;;;;12.64;100.00;100017.16;4923562;29;20190;-69
2021/04/11 09:06:40;;;;;;;9.33;8.43;;;;;;;12.23;100.00;100016.22;4953977;28;20637;-69
2021/04/11 09:09:33;;;;;;;9.60;8.67;;;;;;;12.41;100.00;100024.34;4949522;29;20949;-71
2021/04/11 09:12:19;;;;;;;9.00;8.10;;;;;;;12.64;100.00;100022.59;4934687;29;20923;-70
2021/04/11 09:15:22;;;;;;;8.30;7.50;;;;;;;13.12;100.00;100011.81;4930511;29;20227;-71
2021/04/11 09:18:21;;;;;;;5.73;5.13;;;;;;;12.68;100.00;100023.59;4934340;29;20229;-68
2021/04/11 09:21:22;;;;;;;4.67;4.27;;;;;;;12.66;100.00;100026.63;4948440;29;20222;-68
2021/04/11 09:23:59;;;;;;;5.70;4.70;;;;;;;12.33;100.00;100018.78;4934029;29;20680;-70
2021/04/11 09:26:50;;;;;;;5.03;4.63;;;;;;;12.17;100.00;100036.47;4946096;28;20261;-69
2021/04/11 09:29:35;;;;;;;4.50;4.10;;;;;;;11.95;100.00;100035.50;4961919;28;20191;-70
2021/04/11 09:32:25;;;;;;;4.67;4.27;;;;;;;12.03;100.00;100043.81;4952673;29;20230;-70
2021/04/11 09:35:07;;;;;;;5.50;4.50;;;;;;;12.00;100.00;100044.38;4953426;29;20623;-70
2021/04/11 09:37:33;;;;;;;5.07;4.37;;;;;;;11.87;100.00;100048.94;4933207;29;20613;-70
2021/04/11 09:40:35;;;;;;;5.43;4.73;;;;;;;12.18;100.00;100045.44;4930378;29;20192;-70
2021/04/11 09:43:14;;;;;;;4.90;4.23;;;;;;;12.11;100.00;100048.56;4950622;29;20238;-70
2021/04/11 09:45:47;;;;;;;4.77;4.37;;;;;;;12.25;100.00;100057.56;4943424;29;20289;-70
2021/04/11 09:48:42;;;;;;;4.80;4.40;;;;;;;12.42;100.00;100057.84;4960999;28;20211;-70
2021/04/11 09:51:55;;;;;;;4.87;4.37;;;;;;;12.45;100.00;100062.69;4950937;28;20226;-71
2021/04/11 09:54:33;;;;;;;4.80;4.40;;;;;;;11.81;100.00;100069.19;4929988;29;20211;-70
2021/04/11 09:57:01;;;;;;;5.10;4.67;;;;;;;11.90;100.00;100081.03;4938350;28;20232;-69
2021/04/11 09:59:56;;;;;;;5.37;4.97;;;;;;;12.13;100.00;100070.06;4949756;29;20306;-68
2021/04/11 10:02:37;;;;;;;5.23;4.73;;;;;;;12.16;100.00;100073.00;4912868;29;20226;-69
2021/04/11 10:05:09;;;;;;;5.63;5.13;;;;;;;12.01;100.00;100073.25;4932818;29;20571;-69
2021/04/11 10:08:12;;;;;;;5.90;5.30;;;;;;;12.15;100.00;100063.19;4919027;29;20836;-68
2021/04/11 10:11:12;;;;;;;4.73;4.37;;;;;;;12.20;100.00;100076.75;4934768;29;20230;-70
2021/04/11 10:14:10;;;;;;;5.00;4.50;;;;;;;11.82;100.00;100095.31;4933112;29;20237;-68
2021/04/11 10:17:06;;;;;;;5.60;5.03;;;;;;;12.31;100.00;100089.88;4919931;29;20238;-68
2021/04/11 10:19:39;;;;;;;5.87;5.37;;;;;;;11.87;100.00;100100.66;4934303;29;20186;-69
2021/04/11 10:22:10;;;;;;;5.50;5.10;;;;;;;11.69;100.00;100104.19;4958566;28;20211;-69
2021/04/11 10:24:55;;;;;;;6.40;5.60;;;;;;;11.72;100.00;100106.31;4953196;29;20286;-70
2021/04/11 10:27:27;;;;;;;6.10;5.70;;;;;;;11.63;100.00;100113.53;4942678;29;20490;-70
2021/04/11 10:29:58;;;;;;;5.50;5.10;;;;;;;11.73;100.00;100106.03;4937002;29;20194;-72
2021/04/11 10:32:33;;;;;;;5.60;5.20;;;;;;;11.63;100.00;100118.97;4918759;29;20227;-70
2021/04/11 10:35:11;;;;;;;6.10;5.50;;;;;;;12.01;100.00;100110.50;4936054;29;20201;-68
2021/04/11 10:37:42;;;;;;;5.53;5.07;;;;;;;11.79;100.00;100123.09;4951219;29;21094;-69
2021/04/11 10:40:33;;;;;;;9.53;8.53;;;;;;;11.86;100.00;100124.34;4953681;28;20191;-68
2021/04/11 10:43:24;;;;;;;9.20;8.40;;;;;;;11.67;100.00;100133.59;4918534;29;20176;-68
2021/04/11 10:45:53;;;;;;;247.70;221.67;;;;;;;11.36;100.00;100117.94;4927582;28;20286;-74
2021/04/11 10:48:53;;;;;;;357.97;313.03;;;;;;;11.91;100.00;100138.69;4917989;29;20638;-68
2021/04/11 10:51:37;;;;;;;270.63;243.73;;;;;;;11.50;100.00;100148.75;4950588;28;20606;-69
2021/04/11 10:54:28;;;;;;;100.37;69.60;;;;;;;10.97;100.00;100147.16;4934439;29;20841;-72
2021/04/11 10:56:53;;;;;;;127.00;94.93;;;;;;;11.00;100.00;100162.09;4931457;29;20234;-69
2021/04/11 10:59:49;;;;;;;15.53;12.40;;;;;;;10.56;100.00;100150.53;4943530;28;20567;-69
2021/04/11 11:02:22;;;;;;;86.40;52.07;;;;;;;10.45;100.00;100165.28;4949736;28;20223;-70
2021/04/11 11:05:16;;;;;;;5.43;5.03;;;;;;;10.30;100.00;100166.50;4942880;29;20179;-69
2021/04/11 11:07:57;;;;;;;12.60;11.63;;;;;;;10.18;100.00;100172.28;4935216;29;20241;-69
2021/04/11 11:11:01;;;;;;;52.60;48.00;;;;;;;10.33;100.00;100176.78;4935670;28;20183;-69
2021/04/11 11:13:33;;;;;;;5.43;5.03;;;;;;;10.48;100.00;100182.94;4950824;29;20239;-69
2021/04/11 11:16:12;;;;;;;4.03;3.73;;;;;;;10.21;100.00;100201.56;4954529;28;20712;-70
2021/04/11 11:19:19;;;;;;;4.60;4.20;;;;;;;9.23;100.00;100198.16;4951279;28;20242;-69
2021/04/11 11:22:05;;;;;;;5.00;4.60;;;;;;;9.06;100.00;100207.66;4934009;29;20747;-70
2021/04/11 11:25:08;;;;;;;6.00;5.50;;;;;;;9.08;100.00;100216.31;4951209;28;20187;-70
2021/04/11 11:27:52;;;;;;;6.23;5.63;;;;;;;9.21;100.00;100226.59;4933774;29;20228;-70
2021/04/11 11:30:51;;;;;;;6.47;5.87;;;;;;;9.44;100.00;100217.88;4918763;29;20199;-70
2021/04/11 11:33:39;;;;;;;5.10;4.70;;;;;;;9.09;100.00;100228.78;4951500;29;20198;-69
2021/04/11 11:36:28;;;;;;;6.27;5.77;;;;;;;9.04;100.00;100236.91;4952022;29;20234;-69
2021/04/11 11:39:14;;;;;;;6.50;5.97;;;;;;;9.20;100.00;100236.63;4934730;29;20223;-69
2021/04/11 11:42:12;;;;;;;5.60;5.10;;;;;;;8.82;100.00;100240.19;4933911;29;20227;-69
2021/04/11 11:44:41;;;;;;;6.60;5.70;;;;;;;8.67;100.00;100251.03;4919581;29;20195;-70
2021/04/11 11:47:19;;;;;;;5.60;5.10;;;;;;;8.48;100.00;100247.22;4931612;29;20329;-70
2021/04/11 11:50:03;;;;;;;5.43;4.93;;;;;;;8.38;100.00;100244.47;4919439;29;20748;-69
2021/04/11 11:52:49;;;;;;;6.13;5.53;;;;;;;8.48;100.00;100258.84;4932078;28;20237;-70
2021/04/11 11:55:29;;;;;;;6.40;5.80;;;;;;;8.20;100.00;100249.56;4918817;29;20195;-70
2021/04/11 11:58:17;;;;;;;6.67;6.07;;;;;;;8.48;100.00;100253.44;4934365;29;20591;-69
2021/04/11 12:01:05;;;;;;;7.00;6.40;;;;;;;8.43;100.00;100276.97;4933028;29;20235;-70
2021/04/11 12:03:34;;;;;;;6.50;5.90;;;;;;;8.24;100.00;100278.56;4932496;29;20290;-71
2021/04/11 12:06:02;;;;;;;7.30;6.60;;;;;;;8.21;100.00;100284.47;4941902;29;20890;-70